Time;durP1;ratioP1;P1;durP2;ratioP2;P2;SDS_P1;SDS_P2;PMS_P1;PMS_P2;Temp;Humidity;BMP_temperature;BMP_pressure;BME280_temperature;BME280_humidity;BME280_pressure;Samples;Min_cycle;Max_cycle;Signal;HPM_P1;HPM_P2
2022/02/23 00:00:49;;;;;;;1.23;0.70;;;;;;;7.87;100.00;98621.22;5112838;28;20216;-69
2022/02/23 00:03:15;;;;;;;1.03;0.70;;;;;;;7.90;100.00;98622.84;5113172;28;20222;-69
2022/02/23 00:05:43;;;;;;;1.53;0.90;;;;;;;7.91;100.00;98614.03;5112751;28;20217;-69
2022/02/23 00:08:10;;;;;;;0.80;0.80;;;;;;;7.96;100.00;98623.38;5113064;28;20261;-69
2022/02/23 00:10:36;;;;;;;1.47;0.70;;;;;;;7.97;100.00;98632.13;5112928;28;20306;-69
2022/02/23 00:13:03;;;;;;;0.60;0.60;;;;;;;7.94;100.00;98634.91;5112976;28;20216;-69
2022/02/23 00:15:29;;;;;;;0.70;0.67;;;;;;;7.98;100.00;98629.44;5112507;28;20218;-69
2022/02/23 00:17:56;;;;;;;1.33;0.67;;;;;;;8.03;100.00;98635.28;5112520;28;20671;-69
2022/02/23 00:20:22;;;;;;;0.93;0.80;;;;;;;8.00;100.00;98637.22;5114175;28;20218;-69
2022/02/23 00:22:50;;;;;;;0.93;0.63;;;;;;;7.97;100.00;98640.03;5116486;28;20213;-69
2022/02/23 00:25:17;;;;;;;2.33;0.70;;;;;;;7.95;100.00;98642.72;5116188;28;20665;-69
2022/02/23 00:27:44;;;;;;;1.17;0.60;;;;;;;8.00;100.00;98638.09;5116187;28;20614;-69
2022/02/23 00:30:11;;;;;;;0.87;0.60;;;;;;;8.05;100.00;98653.66;5116138;28;20677;-69
2022/02/23 00:32:38;;;;;;;1.20;0.70;;;;;;;8.05;100.00;98656.28;5116248;28;20215;-69
2022/02/23 00:35:05;;;;;;;1.33;0.70;;;;;;;8.04;100.00;98665.09;5116354;28;20212;-69
2022/02/23 00:37:34;;;;;;;1.07;0.70;;;;;;;8.03;100.00;98661.63;5116228;28;20213;-69
2022/02/23 00:40:02;;;;;;;2.20;0.77;;;;;;;8.03;100.00;98666.03;5116097;28;20307;-69
2022/02/23 00:42:28;;;;;;;1.93;0.70;;;;;;;8.04;100.00;98667.75;5115881;28;20663;-69
2022/02/23 00:44:55;;;;;;;0.93;0.60;;;;;;;8.02;100.00;98659.09;5114502;28;20235;-69
2022/02/23 00:47:21;;;;;;;1.60;0.63;;;;;;;8.02;100.00;98661.72;5115751;28;20245;-69
2022/02/23 00:49:48;;;;;;;0.93;0.50;;;;;;;8.02;100.00;98677.50;5116129;28;20217;-69
2022/02/23 00:52:15;;;;;;;1.63;0.63;;;;;;;8.06;100.00;98665.88;5116140;28;20229;-70
2022/02/23 00:54:42;;;;;;;0.60;0.60;;;;;;;8.10;100.00;98677.97;5115979;28;20220;-69
2022/02/23 00:57:10;;;;;;;2.37;0.80;;;;;;;8.10;100.00;98672.69;5115723;28;20667;-69
2022/02/23 00:59:37;;;;;;;1.20;0.77;;;;;;;8.14;100.00;98669.00;5115611;28;20217;-69
2022/02/23 01:02:04;;;;;;;1.50;0.67;;;;;;;8.13;100.00;98667.25;5115853;28;20222;-69
2022/02/23 01:04:30;;;;;;;0.70;0.60;;;;;;;8.12;100.00;98665.56;5115836;28;20213;-69
2022/02/23 01:06:56;;;;;;;0.90;0.60;;;;;;;8.13;100.00;98678.66;5115749;28;20235;-69
2022/02/23 01:09:23;;;;;;;1.77;0.70;;;;;;;8.09;100.00;98674.47;5115305;28;20240;-69
2022/02/23 01:11:50;;;;;;;0.90;0.80;;;;;;;8.15;100.00;98681.22;5113705;28;20311;-69
2022/02/23 01:14:18;;;;;;;1.40;0.70;;;;;;;8.15;100.00;98686.47;5115192;28;20214;-69
2022/02/23 01:16:45;;;;;;;1.00;0.80;;;;;;;8.15;100.00;98686.47;5108317;28;20292;-69
2022/02/23 01:19:11;;;;;;;1.03;0.60;;;;;;;8.15;100.00;98681.22;5115459;28;20217;-69
2022/02/23 01:21:38;;;;;;;3.70;0.80;;;;;;;8.16;100.00;98694.31;5115550;28;20214;-69
2022/02/23 01:24:05;;;;;;;0.60;0.60;;;;;;;8.16;100.00;98698.72;5115161;28;20209;-69
2022/02/23 01:26:32;;;;;;;2.23;0.70;;;;;;;8.18;100.00;98696.84;5114907;28;20210;-71
2022/02/23 01:28:59;;;;;;;1.07;0.70;;;;;;;8.19;100.00;98706.44;5115505;28;20220;-70
2022/02/23 01:31:27;;;;;;;1.17;0.80;;;;;;;8.19;100.00;98720.50;5115294;28;20213;-69
2022/02/23 01:33:53;;;;;;;0.93;0.80;;;;;;;8.25;100.00;98772.88;5115231;28;20220;-69
2022/02/23 01:36:19;;;;;;;2.40;0.80;;;;;;;8.17;98.43;98813.63;5115096;28;20223;-71
2022/02/23 01:38:46;;;;;;;4.43;1.00;;;;;;;6.91;100.00;98821.38;5113452;28;20224;-68
2022/02/23 01:41:17;;;;;;;3.70;1.10;;;;;;;5.87;100.00;98817.03;5107283;28;20224;-65
2022/02/23 01:43:44;;;;;;;5.37;1.30;;;;;;;5.60;100.00;98823.31;5114783;28;20584;-67
2022/02/23 01:46:10;;;;;;;4.80;1.53;;;;;;;5.32;100.00;98817.44;5114967;28;20216;-68
2022/02/23 01:48:38;;;;;;;3.57;1.30;;;;;;;5.26;100.00;98813.25;5114792;28;20286;-70
2022/02/23 01:51:04;;;;;;;3.40;0.90;;;;;;;5.19;100.00;98822.25;5114446;28;20213;-65
2022/02/23 01:53:31;;;;;;;4.23;1.30;;;;;;;4.99;100.00;98837.84;5114897;28;20213;-68
2022/02/23 01:55:57;;;;;;;5.57;1.37;;;;;;;4.96;100.00;98839.72;5114555;28;20249;-66
2022/02/23 01:58:24;;;;;;;3.37;1.17;;;;;;;5.02;100.00;98839.53;5114338;28;20576;-65
2022/02/23 02:00:51;;;;;;;3.50;1.40;;;;;;;5.01;100.00;98848.28;5114575;28;20221;-65
2022/02/23 02:03:18;;;;;;;5.87;1.30;;;;;;;4.95;100.00;98844.09;5113961;28;20666;-67
2022/02/23 02:05:45;;;;;;;3.93;1.40;;;;;;;4.92;100.00;98848.59;5113202;28;20218;-66
2022/02/23 02:08:12;;;;;;;7.33;1.40;;;;;;;4.88;100.00;98858.34;5114021;28;20244;-65
2022/02/23 02:10:38;;;;;;;4.47;1.10;;;;;;;4.84;100.00;98861.13;5114360;28;20240;-65
2022/02/23 02:13:05;;;;;;;5.97;1.20;;;;;;;4.84;100.00;98858.50;5114257;28;20587;-67
2022/02/23 02:15:32;;;;;;;4.77;1.40;;;;;;;4.83;100.00;98855.00;5112691;28;20209;-63
2022/02/23 02:17:58;;;;;;;4.13;1.50;;;;;;;4.77;100.00;98872.72;5113936;28;20702;-65
2022/02/23 02:20:25;;;;;;;4.90;1.53;;;;;;;4.77;100.00;98860.47;5114119;28;20229;-65
2022/02/23 02:22:53;;;;;;;4.37;1.60;;;;;;;4.82;100.00;98876.88;5114056;28;20223;-64
2022/02/23 02:25:19;;;;;;;7.10;2.03;;;;;;;4.85;100.00;98874.16;5114192;28;20233;-65
2022/02/23 02:27:46;;;;;;;7.77;1.30;;;;;;;4.95;100.00;98875.53;5114204;28;20244;-63
2022/02/23 02:30:13;;;;;;;3.37;1.20;;;;;;;4.98;100.00;98879.81;5112184;28;20240;-64
2022/02/23 02:32:39;;;;;;;5.40;1.80;;;;;;;5.00;100.00;98893.75;5114102;28;20218;-64
2022/02/23 02:35:06;;;;;;;3.27;1.70;;;;;;;4.96;100.00;98887.72;5113975;28;20221;-64
2022/02/23 02:37:33;;;;;;;11.87;1.67;;;;;;;4.99;100.00;98885.00;5113889;28;20218;-64
2022/02/23 02:40:00;;;;;;;4.37;1.30;;;;;;;4.96;100.00;98892.97;5113642;28;20225;-64
2022/02/23 02:42:27;;;;;;;4.17;1.47;;;;;;;4.99;100.00;98895.50;5113657;28;20213;-65
2022/02/23 02:44:53;;;;;;;3.47;1.50;;;;;;;5.01;100.00;98900.69;5113678;28;20220;-66
2022/02/23 02:47:21;;;;;;;3.97;1.37;;;;;;;4.99;100.00;98908.59;5113920;28;20236;-67
2022/02/23 02:49:47;;;;;;;4.73;1.43;;;;;;;4.97;100.00;98910.41;5113879;28;20580;-67
2022/02/23 02:52:14;;;;;;;7.67;1.23;;;;;;;4.99;100.00;98916.44;5113663;28;20210;-67
2022/02/23 02:54:40;;;;;;;7.90;1.43;;;;;;;5.02;100.00;98918.94;5113789;28;20221;-67
2022/02/23 02:57:08;;;;;;;3.07;1.50;;;;;;;4.99;100.00;98929.53;5112343;28;20284;-67
2022/02/23 02:59:34;;;;;;;7.40;1.50;;;;;;;5.02;100.00;98918.09;5113469;28;20239;-68
2022/02/23 03:02:01;;;;;;;3.83;1.90;;;;;;;5.00;100.00;98920.78;5113342;28;20218;-68
2022/02/23 03:04:27;;;;;;;5.27;1.40;;;;;;;5.08;100.00;98929.22;5113292;28;20214;-68
2022/02/23 03:06:54;;;;;;;4.40;1.30;;;;;;;5.14;100.00;98934.25;5113428;28;20218;-68
2022/02/23 03:09:20;;;;;;;7.07;1.77;;;;;;;5.18;100.00;98941.09;5113324;28;20246;-68
2022/02/23 03:11:47;;;;;;;6.30;1.47;;;;;;;5.21;100.00;98941.00;5113456;28;20206;-68
2022/02/23 03:14:15;;;;;;;3.77;1.50;;;;;;;5.26;100.00;98938.22;5113447;28;20214;-68
2022/02/23 03:16:41;;;;;;;6.40;1.83;;;;;;;5.28;100.00;98932.00;5105736;28;20702;-68
2022/02/23 03:19:08;;;;;;;6.30;2.73;;;;;;;5.29;100.00;98925.84;5113150;28;20214;-68
2022/02/23 03:21:34;;;;;;;6.37;1.60;;;;;;;5.21;100.00;98941.00;5113397;28;20574;-69
2022/02/23 03:24:01;;;;;;;6.47;1.77;;;;;;;5.03;100.00;98951.25;5111882;28;20209;-68
2022/02/23 03:26:27;;;;;;;4.23;1.50;;;;;;;5.02;100.00;98960.84;5113325;28;20210;-68
2022/02/23 03:28:54;;;;;;;6.03;1.47;;;;;;;4.99;100.00;98960.09;5113478;28;20234;-68
2022/02/23 03:31:22;;;;;;;8.30;1.70;;;;;;;4.99;100.00;98962.72;5105811;28;20210;-68
2022/02/23 03:33:48;;;;;;;4.63;2.07;;;;;;;4.87;100.00;98966.63;5113192;28;20217;-68
2022/02/23 03:36:17;;;;;;;5.20;2.07;;;;;;;4.74;100.00;98967.94;5113235;28;20214;-68
2022/02/23 03:38:44;;;;;;;6.27;1.77;;;;;;;4.65;100.00;98970.84;5113492;28;20220;-67
2022/02/23 03:41:12;;;;;;;6.20;1.60;;;;;;;4.60;100.00;98975.41;5105495;28;20217;-67
2022/02/23 03:43:38;;;;;;;7.27;1.93;;;;;;;4.50;100.00;98984.44;5113309;28;20570;-67
2022/02/23 03:46:05;;;;;;;7.53;2.43;;;;;;;4.56;100.00;98986.00;5113090;28;20706;-67
2022/02/23 03:48:33;;;;;;;5.83;1.70;;;;;;;4.62;100.00;98986.66;5111485;28;20245;-67
2022/02/23 03:50:59;;;;;;;5.33;1.83;;;;;;;4.64;100.00;98990.09;5113017;28;20291;-67
2022/02/23 03:53:26;;;;;;;5.97;1.50;;;;;;;4.71;100.00;98986.34;5113125;28;20214;-67
2022/02/23 03:55:52;;;;;;;5.27;1.93;;;;;;;4.75;100.00;98995.84;5117146;28;20210;-68
2022/02/23 03:58:19;;;;;;;4.37;2.00;;;;;;;4.77;100.00;99001.88;5116881;28;20224;-67
2022/02/23 04:00:46;;;;;;;5.27;2.00;;;;;;;4.87;100.00;99000.69;5117064;28;20214;-67
2022/02/23 04:03:12;;;;;;;6.13;1.97;;;;;;;4.89;100.00;99009.31;5117196;28;20210;-67
2022/02/23 04:05:40;;;;;;;5.90;2.33;;;;;;;4.97;100.00;99012.56;5116707;28;20214;-67
2022/02/23 04:08:07;;;;;;;5.47;1.87;;;;;;;5.04;100.00;99008.84;5116600;28;20237;-67
2022/02/23 04:10:35;;;;;;;8.77;2.10;;;;;;;5.09;100.00;99013.91;5116426;28;20252;-66
2022/02/23 04:13:01;;;;;;;7.10;1.90;;;;;;;5.12;100.00;99019.91;5116809;28;20244;-67
2022/02/23 04:15:28;;;;;;;4.93;1.60;;;;;;;5.12;100.00;99019.06;5114593;28;20221;-68
2022/02/23 04:17:54;;;;;;;6.80;1.80;;;;;;;5.05;100.00;99034.13;5116575;28;20717;-66
2022/02/23 04:20:21;;;;;;;6.77;1.50;;;;;;;4.97;100.00;99030.91;5116438;28;20591;-66
2022/02/23 04:22:49;;;;;;;3.60;1.70;;;;;;;4.91;100.00;99038.09;5116565;28;20226;-66
2022/02/23 04:25:16;;;;;;;3.37;1.73;;;;;;;4.92;100.00;99048.53;5116422;28;20210;-66
2022/02/23 04:27:43;;;;;;;7.23;2.10;;;;;;;4.85;100.00;99052.25;5116304;28;20237;-66
2022/02/23 04:30:10;;;;;;;6.00;1.83;;;;;;;4.73;100.00;99057.00;5116245;28;20295;-67
2022/02/23 04:32:36;;;;;;;5.83;2.93;;;;;;;4.73;100.00;99067.50;5116134;28;20307;-66
2022/02/23 04:35:04;;;;;;;6.40;1.87;;;;;;;4.77;100.00;99058.66;5116448;28;20245;-67
2022/02/23 04:37:31;;;;;;;6.70;2.00;;;;;;;4.74;100.00;99061.34;5116479;28;20217;-66
2022/02/23 04:40:00;;;;;;;3.70;1.43;;;;;;;4.60;100.00;99064.41;5116467;28;20218;-66
2022/02/23 04:42:27;;;;;;;7.90;2.10;;;;;;;4.48;100.00;99071.78;5114612;28;20213;-66
2022/02/23 04:45:00;;;;;;;6.33;2.30;;;;;;;4.39;100.00;99078.13;5116138;28;20217;-66
2022/02/23 04:47:26;;;;;;;6.90;2.10;;;;;;;4.27;100.00;99073.25;5115725;28;20210;-66
2022/02/23 04:49:53;;;;;;;10.17;2.00;;;;;;;4.29;100.00;99081.91;5116191;28;20224;-66
2022/02/23 04:52:19;;;;;;;6.73;2.00;;;;;;;4.28;100.00;99085.44;5116030;28;20240;-66
2022/02/23 04:54:46;;;;;;;7.47;2.30;;;;;;;4.17;100.00;99082.25;5115871;28;20221;-66
2022/02/23 04:57:13;;;;;;;7.20;2.27;;;;;;;4.16;100.00;99091.03;5115663;28;20213;-67
2022/02/23 04:59:40;;;;;;;6.20;1.90;;;;;;;4.04;100.00;99090.53;5115528;28;20214;-67
2022/02/23 05:02:09;;;;;;;6.87;1.93;;;;;;;4.06;100.00;99093.94;5115905;28;20562;-67
2022/02/23 05:04:36;;;;;;;8.30;2.23;;;;;;;4.01;100.00;99099.31;5115429;28;20246;-67
2022/02/23 05:07:03;;;;;;;8.20;2.07;;;;;;;3.96;100.00;99103.81;5114130;28;20216;-67
2022/02/23 05:09:29;;;;;;;7.93;2.33;;;;;;;3.93;100.00;99098.69;5114830;28;20253;-67
2022/02/23 05:11:56;;;;;;;6.50;2.10;;;;;;;3.90;100.00;99097.88;5115575;28;20217;-67
2022/02/23 05:14:23;;;;;;;5.63;1.90;;;;;;;3.80;100.00;99102.50;5115180;28;20210;-67
2022/02/23 05:16:50;;;;;;;9.20;2.63;;;;;;;3.73;100.00;99100.97;5115272;28;20221;-67
2022/02/23 05:19:16;;;;;;;4.90;2.30;;;;;;;3.74;100.00;99102.66;5115442;28;20214;-67
2022/02/23 05:21:43;;;;;;;4.63;2.33;;;;;;;3.73;100.00;99105.34;5115508;28;20577;-67
2022/02/23 05:24:09;;;;;;;6.17;2.00;;;;;;;3.71;100.00;99101.88;5115059;28;20240;-67
2022/02/23 05:26:36;;;;;;;9.53;2.00;;;;;;;3.73;100.00;99100.97;5115447;28;20222;-67
2022/02/23 05:29:02;;;;;;;6.10;2.30;;;;;;;3.68;100.00;99113.28;5114910;28;20728;-67
2022/02/23 05:31:30;;;;;;;4.80;2.20;;;;;;;3.63;100.00;99115.19;5115349;28;20217;-67
2022/02/23 05:33:56;;;;;;;5.07;2.10;;;;;;;3.63;100.00;99115.19;5113486;28;20217;-67
2022/02/23 05:36:23;;;;;;;7.83;2.40;;;;;;;3.61;100.00;99116.97;5115252;28;20217;-67
2022/02/23 05:38:49;;;;;;;10.20;2.87;;;;;;;3.54;100.00;99118.03;5115076;28;20228;-67
2022/02/23 05:41:16;;;;;;;7.13;2.20;;;;;;;3.50;100.00;99111.19;5114663;28;20224;-67
2022/02/23 05:43:42;;;;;;;5.47;1.80;;;;;;;3.39;100.00;99115.81;5115017;28;20210;-67
2022/02/23 05:46:09;;;;;;;6.10;2.50;;;;;;;3.36;100.00;99130.72;5107322;28;20214;-67
2022/02/23 05:48:36;;;;;;;6.60;2.30;;;;;;;3.30;100.00;99130.88;5114911;28;20240;-67
2022/02/23 05:51:03;;;;;;;6.17;2.37;;;;;;;3.31;100.00;99135.19;5115044;28;20213;-67
2022/02/23 05:53:29;;;;;;;7.50;2.50;;;;;;;3.27;100.00;99139.63;5114552;28;20696;-67
2022/02/23 05:55:56;;;;;;;8.97;2.73;;;;;;;3.24;100.00;99146.69;5114821;28;20209;-67
2022/02/23 05:58:22;;;;;;;9.13;3.40;;;;;;;3.29;100.00;99155.25;5114740;28;20229;-67
2022/02/23 06:00:49;;;;;;;8.03;2.50;;;;;;;3.42;100.00;99160.16;5105365;28;20217;-67
2022/02/23 06:03:15;;;;;;;10.53;3.60;;;;;;;3.58;100.00;99163.22;5114603;28;20216;-67
2022/02/23 06:05:47;;;;;;;8.70;4.07;;;;;;;3.75;100.00;99161.06;5114211;28;20210;-67
2022/02/23 06:08:13;;;;;;;9.77;3.60;;;;;;;3.99;100.00;99166.50;5114175;28;20232;-66
2022/02/23 06:10:40;;;;;;;9.63;3.40;;;;;;;4.06;100.00;99172.41;5114090;28;20242;-67
2022/02/23 06:13:06;;;;;;;9.93;3.57;;;;;;;4.22;100.00;99168.50;5114431;28;20224;-67
2022/02/23 06:15:33;;;;;;;6.80;3.10;;;;;;;4.29;100.00;99175.28;5114345;28;20252;-67
2022/02/23 06:17:59;;;;;;;9.37;3.37;;;;;;;4.28;100.00;99187.50;5113410;28;20213;-68
2022/02/23 06:20:26;;;;;;;11.07;3.70;;;;;;;4.36;100.00;99187.28;5114217;28;20213;-69
2022/02/23 06:22:53;;;;;;;10.23;4.00;;;;;;;4.39;100.00;99195.06;5114340;28;20220;-68
2022/02/23 06:25:21;;;;;;;11.00;4.70;;;;;;;4.30;100.00;99192.69;5114242;28;20231;-68
2022/02/23 06:27:47;;;;;;;10.40;4.20;;;;;;;4.32;100.00;99196.97;5113002;28;20232;-68
2022/02/23 06:30:14;;;;;;;8.77;3.93;;;;;;;4.31;100.00;99200.50;5114059;28;20290;-68
2022/02/23 06:32:40;;;;;;;7.20;4.40;;;;;;;4.31;100.00;99210.09;5114054;28;20212;-68
2022/02/23 06:35:08;;;;;;;9.43;4.20;;;;;;;4.30;100.00;99217.09;5114050;28;20216;-68
2022/02/23 06:37:34;;;;;;;9.60;4.03;;;;;;;4.28;100.00;99223.28;5113748;28;20687;-68
2022/02/23 06:40:02;;;;;;;8.57;4.43;;;;;;;4.29;100.00;99223.22;5113684;28;20225;-68
2022/02/23 06:42:29;;;;;;;7.60;4.27;;;;;;;4.38;100.00;99222.97;5113965;28;20210;-68
2022/02/23 06:44:56;;;;;;;10.67;4.37;;;;;;;4.38;100.00;99225.59;5113496;28;20210;-68
2022/02/23 06:47:23;;;;;;;11.10;4.53;;;;;;;4.38;100.00;99233.44;5113472;28;20713;-69
2022/02/23 06:49:49;;;;;;;11.97;5.00;;;;;;;4.32;100.00;99233.63;5113447;28;20714;-70
2022/02/23 06:52:19;;;;;;;12.10;4.70;;;;;;;4.26;100.00;99233.78;5111875;28;20679;-68
2022/02/23 06:54:45;;;;;;;11.10;4.60;;;;;;;4.17;100.00;99234.00;5113881;28;20221;-68
2022/02/23 06:57:13;;;;;;;11.80;4.50;;;;;;;4.23;100.00;99236.47;5113779;28;20225;-68
2022/02/23 06:59:40;;;;;;;10.40;4.57;;;;;;;4.30;100.00;99232.81;5113734;28;20255;-68
2022/02/23 07:02:07;;;;;;;9.20;5.40;;;;;;;4.48;100.00;99234.94;5113521;28;20213;-68
2022/02/23 07:04:33;;;;;;;7.67;4.93;;;;;;;4.65;100.00;99232.66;5113431;28;20210;-68
2022/02/23 07:07:00;;;;;;;13.43;5.63;;;;;;;4.72;100.00;99236.88;5113602;28;20588;-68
2022/02/23 07:09:26;;;;;;;12.77;5.00;;;;;;;4.76;100.00;99246.31;5113652;28;20258;-69
2022/02/23 07:11:53;;;;;;;8.53;4.80;;;;;;;4.72;100.00;99244.72;5113463;28;20221;-68
2022/02/23 07:14:22;;;;;;;11.97;4.87;;;;;;;4.72;100.00;99251.72;5113639;28;20623;-69
2022/02/23 07:16:48;;;;;;;13.07;4.63;;;;;;;4.81;100.00;99252.28;5113268;28;20671;-68
2022/02/23 07:19:16;;;;;;;8.47;4.67;;;;;;;4.82;100.00;99259.25;5111839;28;20221;-69
2022/02/23 07:21:44;;;;;;;11.00;4.50;;;;;;;4.84;100.00;99265.28;5113521;28;20221;-69
2022/02/23 07:24:10;;;;;;;9.67;4.30;;;;;;;4.87;100.00;99270.47;5113279;28;20221;-69
2022/02/23 07:26:37;;;;;;;10.83;4.70;;;;;;;4.88;100.00;99266.94;5113381;28;20224;-69
2022/02/23 07:29:03;;;;;;;7.63;4.40;;;;;;;4.97;100.00;99271.06;5116151;28;20260;-69
2022/02/23 07:31:31;;;;;;;8.00;5.10;;;;;;;5.04;100.00;99272.59;5117249;28;20221;-69
2022/02/23 07:33:58;;;;;;;12.60;5.20;;;;;;;5.33;100.00;99270.84;5117257;28;20225;-68
2022/02/23 07:36:24;;;;;;;11.57;4.90;;;;;;;5.57;100.00;99274.44;5117605;28;20215;-68
2022/02/23 07:38:52;;;;;;;8.03;4.80;;;;;;;5.79;100.00;99276.34;5116596;28;20220;-69
2022/02/23 07:41:23;;;;;;;12.67;5.10;;;;;;;5.99;100.00;99276.56;5111318;28;20214;-69
2022/02/23 07:43:50;;;;;;;7.97;5.00;;;;;;;6.17;100.00;99277.75;5117031;28;20211;-68
2022/02/23 07:46:17;;;;;;;9.30;5.20;;;;;;;6.36;100.00;99279.69;5115662;28;20213;-69
2022/02/23 07:48:47;;;;;;;9.43;5.17;;;;;;;6.56;100.00;99277.25;5116838;28;20314;-68
2022/02/23 07:51:14;;;;;;;10.13;4.70;;;;;;;6.81;100.00;99283.34;5116968;28;20252;-68
2022/02/23 07:53:40;;;;;;;9.93;4.70;;;;;;;6.96;100.00;99282.78;5116774;28;20664;-68
2022/02/23 07:56:07;;;;;;;10.10;5.00;;;;;;;7.07;100.00;99296.38;5117017;28;20216;-68
2022/02/23 07:58:34;;;;;;;8.40;3.90;;;;;;;7.12;100.00;99294.44;5117036;28;20212;-68
2022/02/23 08:01:00;;;;;;;6.80;3.70;;;;;;;7.07;100.00;99291.13;5117019;28;20215;-69
2022/02/23 08:03:27;;;;;;;9.97;4.27;;;;;;;6.97;100.00;99299.41;5117243;28;20211;-67
2022/02/23 08:05:55;;;;;;;7.20;3.70;;;;;;;6.76;100.00;99305.41;5117231;28;20236;-68
2022/02/23 08:08:22;;;;;;;8.13;3.83;;;;;;;6.60;100.00;99299.84;5116695;28;20212;-68
2022/02/23 08:10:49;;;;;;;8.33;3.73;;;;;;;6.33;100.00;99306.06;5115366;28;20325;-68
2022/02/23 08:13:16;;;;;;;9.23;4.77;;;;;;;6.10;100.00;99308.59;5117026;28;20238;-68
2022/02/23 08:21:13;;;;;;;10.80;5.23;;;;;;;6.14;100.00;99304.97;5115317;28;20219;-69
2022/02/23 08:23:43;;;;;;;9.43;5.20;;;;;;;6.09;100.00;99298.13;5113805;28;20246;-68
2022/02/23 08:26:10;;;;;;;12.83;5.40;;;;;;;6.09;100.00;99306.88;5115336;28;20210;-68
2022/02/23 08:28:37;;;;;;;12.20;5.60;;;;;;;6.12;100.00;99301.50;5116408;28;20219;-68
2022/02/23 08:31:05;;;;;;;9.63;5.40;;;;;;;6.22;100.00;99295.06;5116275;28;20219;-68
2022/02/23 08:33:31;;;;;;;10.40;4.83;;;;;;;6.29;100.00;99298.34;5116173;28;20677;-67
2022/02/23 08:35:58;;;;;;;8.87;4.63;;;;;;;6.33;100.00;99298.19;5116398;28;20209;-68
2022/02/23 08:38:25;;;;;;;12.40;4.90;;;;;;;6.33;100.00;99294.69;5114718;28;20212;-67
2022/02/23 08:40:52;;;;;;;7.70;4.27;;;;;;;6.35;100.00;99287.63;5114973;28;20231;-68
2022/02/23 08:43:18;;;;;;;8.33;4.20;;;;;;;6.42;100.00;99289.97;5114710;28;20569;-68
2022/02/23 08:45:45;;;;;;;8.50;4.67;;;;;;;6.59;100.00;99292.88;5115766;28;20216;-67
2022/02/23 08:48:12;;;;;;;7.83;4.27;;;;;;;6.59;100.00;99298.13;5116061;28;20263;-67
2022/02/23 08:50:38;;;;;;;8.80;4.23;;;;;;;6.65;100.00;99303.19;5115836;28;20236;-68
2022/02/23 08:53:05;;;;;;;8.10;4.37;;;;;;;6.61;100.00;99300.72;5116017;28;20220;-68
2022/02/23 08:55:33;;;;;;;7.07;4.03;;;;;;;6.64;100.00;99300.59;5110634;28;20224;-68
2022/02/23 08:58:01;;;;;;;10.20;4.17;;;;;;;6.68;100.00;99299.59;5115705;28;20213;-68
2022/02/23 09:00:28;;;;;;;6.53;4.50;;;;;;;6.80;100.00;99302.66;5115586;28;20701;-68
2022/02/23 09:02:55;;;;;;;9.87;4.13;;;;;;;6.90;100.00;99303.19;5114134;28;20576;-68
2022/02/23 09:05:22;;;;;;;10.43;4.37;;;;;;;6.97;100.00;99300.25;5115738;28;20212;-68
2022/02/23 09:07:48;;;;;;;8.60;3.80;;;;;;;7.06;100.00;99302.56;5115774;28;20218;-68
2022/02/23 09:10:15;;;;;;;8.40;4.07;;;;;;;7.13;100.00;99296.16;5115603;28;20260;-68
2022/02/23 09:12:44;;;;;;;9.37;4.63;;;;;;;7.22;100.00;99300.22;5115667;28;20209;-68
2022/02/23 09:15:12;;;;;;;5.77;3.73;;;;;;;7.24;100.00;99300.09;5115238;28;20219;-68
2022/02/23 09:17:39;;;;;;;8.47;4.17;;;;;;;7.32;100.00;99296.34;5115468;28;20216;-68
2022/02/23 09:20:06;;;;;;;7.70;3.40;;;;;;;7.39;100.00;99291.63;5115442;28;20216;-68
2022/02/23 09:22:33;;;;;;;7.07;3.63;;;;;;;7.42;100.00;99293.28;5115458;28;20239;-68
2022/02/23 09:24:59;;;;;;;6.67;3.40;;;;;;;7.69;100.00;99292.22;5115439;28;20630;-68
2022/02/23 09:27:26;;;;;;;7.47;2.90;;;;;;;7.72;100.00;99300.00;5115463;28;20208;-68
2022/02/23 09:29:54;;;;;;;8.27;3.37;;;;;;;7.85;100.00;99295.97;5113592;28;20241;-68
2022/02/23 09:32:21;;;;;;;8.80;3.17;;;;;;;7.93;100.00;99307.03;5115275;28;20217;-68
2022/02/23 09:34:48;;;;;;;7.47;2.93;;;;;;;7.98;100.00;99307.72;5115243;28;20213;-67
2022/02/23 09:37:15;;;;;;;4.67;2.63;;;;;;;8.01;100.00;99310.22;5115434;28;20225;-67
2022/02/23 09:39:41;;;;;;;6.87;2.63;;;;;;;8.01;100.00;99310.22;5115127;28;20224;-67
2022/02/23 09:42:11;;;;;;;7.07;3.10;;;;;;;8.22;100.00;99309.38;5107354;28;20217;-67
2022/02/23 09:44:40;;;;;;;6.10;2.87;;;;;;;8.50;100.00;99299.41;5114917;28;20213;-68
2022/02/23 09:47:09;;;;;;;9.27;2.67;;;;;;;8.59;100.00;99297.25;5114947;28;20221;-67
2022/02/23 09:49:35;;;;;;;5.33;2.00;;;;;;;8.59;100.00;99302.53;5114833;28;20241;-67
2022/02/23 09:52:04;;;;;;;6.07;2.40;;;;;;;8.45;100.00;99296.13;5113440;28;20704;-67
2022/02/23 09:54:30;;;;;;;4.07;2.00;;;;;;;8.47;100.00;99299.53;5114739;28;20224;-67
2022/02/23 09:56:57;;;;;;;3.57;1.63;;;;;;;8.55;100.00;99297.41;5112751;28;20220;-67
2022/02/23 09:59:25;;;;;;;4.57;1.90;;;;;;;8.54;100.00;99296.59;5114312;28;20218;-67
2022/02/23 10:01:53;;;;;;;4.93;1.90;;;;;;;8.60;99.65;99298.94;5114785;28;20308;-66
2022/02/23 10:04:22;;;;;;;4.30;2.13;;;;;;;8.95;100.00;99297.41;5114663;28;20224;-67
2022/02/23 10:06:49;;;;;;;5.33;2.10;;;;;;;8.99;100.00;99291.94;5114450;28;20222;-66
2022/02/23 10:09:16;;;;;;;4.90;1.80;;;;;;;8.97;99.96;99296.44;5110978;28;20332;-67
2022/02/23 10:11:47;;;;;;;4.87;2.30;;;;;;;9.03;96.48;99290.00;5114142;28;20214;-67
2022/02/23 10:14:13;;;;;;;4.37;1.70;;;;;;;9.09;96.04;99289.72;5114728;28;20269;-67
2022/02/23 10:16:43;;;;;;;6.30;1.93;;;;;;;9.44;100.00;99294.28;5113978;28;20205;-68
2022/02/23 10:19:12;;;;;;;4.73;1.57;;;;;;;9.42;96.76;99288.22;5113897;28;20214;-67
2022/02/23 10:21:49;;;;;;;4.43;1.60;;;;;;;9.54;91.38;99296.41;5112566;28;20540;-67
2022/02/23 10:24:25;;;;;;;5.17;2.00;;;;;;;9.48;85.66;99296.69;5114069;28;20695;-67
2022/02/23 10:27:01;;;;;;;7.77;2.13;;;;;;;9.39;84.28;99294.50;5114311;28;20240;-67
2022/02/23 10:29:30;;;;;;;3.90;2.00;;;;;;;9.57;85.84;99292.75;5107279;28;20236;-67
2022/02/23 10:31:57;;;;;;;8.87;2.10;;;;;;;9.90;91.37;99291.19;5113747;28;20248;-67
2022/02/23 10:34:25;;;;;;;3.97;1.50;;;;;;;10.19;89.32;99287.97;5114252;28;20214;-67
2022/02/23 10:37:00;;;;;;;6.00;1.90;;;;;;;10.44;89.94;99277.91;5112367;28;20225;-67
2022/02/23 10:39:35;;;;;;;4.73;1.93;;;;;;;10.48;85.29;99280.34;5111376;28;20207;-67
2022/02/23 10:42:06;;;;;;;5.00;1.70;;;;;;;10.51;82.94;99279.31;5113972;28;20212;-67
2022/02/23 10:44:33;;;;;;;4.53;1.80;;;;;;;10.43;83.11;99278.84;5114173;28;20725;-67
2022/02/23 10:47:00;;;;;;;4.03;1.77;;;;;;;10.40;79.74;99286.94;5113936;28;20206;-67
2022/02/23 10:49:27;;;;;;;2.23;1.40;;;;;;;10.33;79.85;99275.81;5112005;28;20219;-66
2022/02/23 10:51:56;;;;;;;4.47;1.80;;;;;;;10.28;79.41;99276.97;5106419;28;20214;-66
2022/02/23 10:54:23;;;;;;;4.13;1.40;;;;;;;10.34;79.51;99274.03;5113714;28;20221;-66
2022/02/23 10:56:50;;;;;;;3.30;1.50;;;;;;;10.25;76.72;99267.41;5113353;28;20673;-67
2022/02/23 10:59:19;;;;;;;5.07;1.63;;;;;;;10.25;83.85;99266.53;5113745;28;20213;-67
2022/02/23 11:01:48;;;;;;;6.30;2.40;;;;;;;10.42;87.51;99261.28;5106728;28;20222;-66
2022/02/23 11:04:15;;;;;;;6.93;1.90;;;;;;;10.63;88.97;99262.81;5113003;28;20225;-66
2022/02/23 11:06:42;;;;;;;4.67;1.73;;;;;;;10.85;82.06;99263.41;5113619;28;20219;-66
2022/02/23 11:09:10;;;;;;;5.70;2.00;;;;;;;10.91;84.29;99257.81;5113705;28;20239;-66
2022/02/23 11:11:39;;;;;;;6.70;1.87;;;;;;;10.90;80.49;99258.75;5113190;28;20241;-66
2022/02/23 11:14:08;;;;;;;3.13;1.50;;;;;;;10.62;80.10;99255.81;5111578;28;20674;-66
2022/02/23 11:16:35;;;;;;;4.23;1.60;;;;;;;10.50;82.98;99251.16;5106268;28;20206;-67
2022/02/23 11:19:03;;;;;;;6.00;1.80;;;;;;;10.50;78.11;99248.50;5113556;28;20213;-68
2022/02/23 11:21:34;;;;;;;4.07;1.83;;;;;;;10.39;76.82;99242.94;5113545;28;20584;-67
2022/02/23 11:24:04;;;;;;;4.27;1.73;;;;;;;10.38;76.36;99246.50;5112262;28;20223;-67
2022/02/23 11:26:34;;;;;;;6.07;1.90;;;;;;;10.20;77.49;99236.84;5113128;28;20216;-66
2022/02/23 11:29:10;;;;;;;2.77;1.50;;;;;;;10.13;78.72;99236.31;5113045;28;20290;-66
2022/02/23 11:31:38;;;;;;;3.77;1.60;;;;;;;10.12;79.18;99228.47;5113368;28;20250;-66
2022/02/23 11:34:06;;;;;;;5.63;1.63;;;;;;;10.19;84.00;99235.16;5110782;28;20233;-67
2022/02/23 11:36:37;;;;;;;4.17;1.60;;;;;;;10.17;81.04;99235.25;5110762;28;20243;-68